Time;durP1;ratioP1;P1;durP2;ratioP2;P2;SDS_P1;SDS_P2;PMS_P1;PMS_P2;Temp;Humidity;BMP_temperature;BMP_pressure;BME280_temperature;BME280_humidity;BME280_pressure;Samples;Min_cycle;Max_cycle;Signal;HPM_P1;HPM_P2
2022/09/18 00:01:14;;;;;;;;;5.60;4.60;;;;;14.67;47.25;101513.78;4997083;28;45458;-56
2022/09/18 00:03:40;;;;;;;;;8.00;5.00;;;;;14.38;47.23;101463.56;5014765;28;45515;-57
2022/09/18 00:06:13;;;;;;;;;4.00;4.00;;;;;14.67;47.26;101515.69;5014708;28;45402;-57
2022/09/18 00:08:39;;;;;;;;;5.40;5.40;;;;;14.59;47.73;101502.97;5014748;28;45465;-57
2022/09/18 00:11:05;;;;;;;;;6.00;5.00;;;;;14.63;47.92;101505.06;5014724;28;45224;-57
2022/09/18 00:13:32;;;;;;;;;5.20;4.00;;;;;14.60;47.65;101505.53;5014518;28;45338;-57
2022/09/18 00:15:58;;;;;;;;;6.00;4.80;;;;;14.64;47.38;101514.22;4997351;28;45376;-57
2022/09/18 00:18:23;;;;;;;;;5.50;4.00;;;;;14.57;47.49;101505.97;5014147;28;46136;-57
2022/09/18 00:20:49;;;;;;;;;6.75;4.00;;;;;14.55;47.80;101505.34;4991682;28;45321;-59
2022/09/18 00:23:14;;;;;;;;;3.00;3.00;;;;;14.56;47.62;101508.97;4989522;28;45269;-57
2022/09/18 00:25:40;;;;;;;;;5.75;4.50;;;;;14.30;48.41;101474.88;4974238;28;45183;-58
2022/09/18 00:28:06;;;;;;;;;6.25;5.00;;;;;14.42;48.73;101508.16;5003927;28;45992;-58
2022/09/18 00:30:31;;;;;;;;;4.25;4.25;;;;;14.37;48.22;101498.59;5014246;28;45441;-59
2022/09/18 00:32:56;;;;;;;;;5.25;5.00;;;;;14.34;48.52;101506.47;5012182;28;45473;-58
2022/09/18 00:35:22;;;;;;;;;4.25;3.25;;;;;14.29;48.48;101501.63;5013430;28;45582;-59
2022/09/18 00:37:47;;;;;;;;;6.75;3.75;;;;;14.32;48.41;101505.88;5011783;28;46043;-58
2022/09/18 00:40:15;;;;;;;;;5.00;5.00;;;;;14.22;48.46;101476.81;4994981;28;45361;-56
2022/09/18 00:42:41;;;;;;;;;6.00;5.00;;;;;14.34;48.60;101503.72;5014215;28;45442;-57
2022/09/18 00:45:09;;;;;;;;;4.00;4.00;;;;;14.32;48.78;101500.34;5014667;28;45605;-57
2022/09/18 00:47:42;;;;;;;;;5.80;4.60;;;;;14.26;48.19;101493.78;5014316;28;45510;-57
2022/09/18 00:50:23;;;;;;;;;7.80;4.40;;;;;14.16;48.56;101483.22;4997683;28;45371;-58
2022/09/18 00:53:00;;;;;;;;;7.60;5.00;;;;;14.11;48.34;101471.97;5013919;28;45420;-58
2022/09/18 00:55:37;;;;;;;;;4.80;3.80;;;;;14.35;48.28;101505.41;4984308;28;45409;-60
2022/09/18 00:58:02;;;;;;;;;3.60;2.80;;;;;14.35;48.55;101508.19;4999899;28;46010;-58
2022/09/18 01:00:28;;;;;;;;;6.00;3.50;;;;;14.34;48.66;101509.25;4983511;28;46072;-58
2022/09/18 01:02:54;;;;;;;;;6.25;5.00;;;;;14.08;48.47;101478.78;4999608;28;45307;-57
2022/09/18 01:05:35;;;;;;;;;4.00;4.00;;;;;14.14;48.59;101493.59;4999991;28;45633;-58
2022/09/18 01:08:04;;;;;;;;;6.60;5.60;;;;;14.28;48.86;101513.75;4984056;28;45368;-59
2022/09/18 01:10:45;;;;;;;;;3.00;2.60;;;;;14.26;48.83;101512.25;5017582;28;45322;-57
2022/09/18 01:13:22;;;;;;;;;5.80;4.00;;;;;14.19;48.47;101504.03;5017584;28;45302;-56
2022/09/18 01:16:12;;;;;;;;;4.80;4.40;;;;;14.22;48.59;101512.72;5017552;28;45405;-57
2022/09/18 01:19:25;;;;;;;;;6.40;5.00;;;;;14.20;48.65;101517.56;5016935;28;45715;-58
2022/09/18 01:22:12;;;;;;;;;5.40;4.00;;;;;14.11;49.04;101513.38;5011824;28;45443;-58
2022/09/18 01:24:41;;;;;;;;;5.80;5.20;;;;;14.06;49.08;101486.44;4999020;28;45515;-59
2022/09/18 01:27:09;;;;;;;;;2.20;2.20;;;;;13.91;48.83;101470.13;5017347;28;45450;-58
2022/09/18 01:29:47;;;;;;;;;5.80;4.00;;;;;14.15;48.84;101498.06;4982751;28;46160;-59
2022/09/18 01:32:26;;;;;;;;;4.80;4.40;;;;;14.10;48.91;101484.06;5016994;28;45563;-57
2022/09/18 01:34:59;;;;;;;;;4.40;2.80;;;;;13.92;49.32;101466.28;4999405;28;45432;-58
2022/09/18 01:37:24;;;;;;;;;2.00;2.00;;;;;14.14;48.88;101499.13;4983488;28;45466;-55
2022/09/18 01:40:21;;;;;;;;;3.75;3.25;;;;;14.12;49.34;101501.25;5016892;28;46602;-57
2022/09/18 01:42:47;;;;;;;;;2.80;2.80;;;;;14.05;49.43;101489.41;5015314;28;45324;-55
2022/09/18 01:45:16;;;;;;;;;3.00;3.00;;;;;13.95;49.62;101493.47;4999226;28;45387;-57
2022/09/18 01:47:50;;;;;;;;;4.00;3.20;;;;;13.85;49.90;101500.47;4983120;28;45420;-56
2022/09/18 01:50:15;;;;;;;;;3.20;3.20;;;;;13.83;49.63;101487.75;4982883;28;46914;-57
2022/09/18 01:52:47;;;;;;;;;4.50;3.25;;;;;13.92;49.47;101499.41;4982328;28;45461;-58
2022/09/18 01:55:15;;;;;;;;;5.60;3.20;;;;;13.76;49.31;101464.84;4982524;28;45390;-57
2022/09/18 01:57:54;;;;;;;;;2.00;2.00;;;;;13.93;49.71;101487.31;4999073;28;45567;-58
2022/09/18 02:00:20;;;;;;;;;3.60;2.80;;;;;13.80;49.21;101465.25;4998621;28;46094;-55
2022/09/18 02:03:08;;;;;;;;;1.00;1.00;;;;;13.92;49.33;101488.38;4976835;28;45532;-55
2022/09/18 02:05:38;;;;;;;;;2.40;2.00;;;;;13.87;49.62;101487.34;4997790;28;45321;-56
2022/09/18 02:08:10;;;;;;;;;2.40;2.00;;;;;13.88;49.09;101487.09;4998754;28;45555;-56
2022/09/18 02:10:39;;;;;;;;;2.40;2.40;;;;;13.87;49.37;101482.66;5016093;28;46135;-57
2022/09/18 02:13:04;;;;;;;;;1.20;1.20;;;;;13.36;49.59;101399.56;5016295;28;45445;-56
2022/09/18 02:15:31;;;;;;;;;3.50;2.50;;;;;13.80;49.65;101474.41;4965791;28;45447;-57
2022/09/18 02:17:59;;;;;;;;;3.20;2.40;;;;;13.77;49.73;101476.75;5016498;28;45405;-57
2022/09/18 02:20:28;;;;;;;;;3.20;2.80;;;;;13.78;49.62;101481.19;4982253;28;45372;-56
2022/09/18 02:22:56;;;;;;;;;3.80;3.40;;;;;13.77;49.92;101493.28;5016175;28;45518;-59
2022/09/18 02:25:29;;;;;;;;;4.40;3.60;;;;;13.74;49.85;101482.66;5016203;28;45371;-57
2022/09/18 02:27:55;;;;;;;;;3.00;3.00;;;;;13.73;50.17;101480.97;4981960;28;45546;-59
2022/09/18 02:30:20;;;;;;;;;3.40;3.40;;;;;13.75;50.17;101484.38;5016196;28;45573;-58
2022/09/18 02:32:46;;;;;;;;;2.75;2.75;;;;;13.77;49.72;101493.28;4997960;28;45477;-57
2022/09/18 02:35:12;;;;;;;;;2.25;2.25;;;;;13.59;50.25;101458.94;4998450;28;45332;-58
2022/09/18 02:37:40;;;;;;;;;5.40;3.20;;;;;13.77;49.86;101498.81;4966148;28;45395;-58
2022/09/18 02:40:27;;;;;;;;;3.00;3.00;;;;;13.76;50.03;101484.16;4997994;28;46741;-58
2022/09/18 02:43:22;;;;;;;;;3.40;3.40;;;;;13.71;50.31;101472.91;5000700;28;45403;-57
2022/09/18 02:46:24;;;;;;;;;3.40;2.80;;;;;13.59;50.63;101464.44;4993272;28;45879;-58
2022/09/18 02:49:27;;;;;;;;;4.00;3.80;;;;;13.71;50.13;101485.88;5016464;28;45307;-56
2022/09/18 02:52:03;;;;;;;;;4.00;3.00;;;;;13.68;50.35;101476.13;5015777;28;45325;-58
2022/09/18 02:54:35;;;;;;;;;2.80;2.80;;;;;13.51;50.71;101454.47;4982090;28;45608;-58
2022/09/18 02:57:03;;;;;;;;;3.20;3.20;;;;;13.61;50.81;101480.78;4998973;28;45499;-58
2022/09/18 02:59:34;;;;;;;;;3.00;3.00;;;;;13.55;50.76;101466.78;4998288;28;45413;-58
2022/09/18 03:02:00;;;;;;;;;2.40;2.40;;;;;13.34;51.01;101431.16;4997998;28;45742;-58
2022/09/18 03:04:26;;;;;;;;;2.00;2.00;;;;;13.53;51.18;101463.41;4997774;28;45377;-58
2022/09/18 03:06:51;;;;;;;;;4.00;3.60;;;;;13.53;50.98;101457.91;4997803;28;45348;-58
2022/09/18 03:09:17;;;;;;;;;2.00;2.00;;;;;13.40;50.65;101435.81;4998091;28;45601;-58
2022/09/18 03:11:43;;;;;;;;;3.00;3.00;;;;;13.55;51.11;101466.78;5015550;28;46557;-58
2022/09/18 03:14:09;;;;;;;;;2.40;2.40;;;;;13.35;51.54;101452.16;4997845;28;45315;-57
2022/09/18 03:16:35;;;;;;;;;2.60;2.00;;;;;13.20;52.23;101427.56;4997590;28;45323;-57
2022/09/18 03:19:00;;;;;;;;;3.00;2.75;;;;;13.17;51.46;101417.81;5015655;28;45331;-57
2022/09/18 03:21:26;;;;;;;;;3.00;3.00;;;;;13.40;51.52;101455.13;5014992;28;46636;-56
2022/09/18 03:23:52;;;;;;;;;2.25;2.25;;;;;13.33;51.52;101446.00;4997553;28;46376;-57
2022/09/18 03:26:17;;;;;;;;;2.00;2.00;;;;;13.26;51.82;101446.00;5015340;28;45362;-56
2022/09/18 03:28:43;;;;;;;;;2.25;2.25;;;;;13.02;52.15;101409.75;4990449;28;45647;-57
2022/09/18 03:31:09;;;;;;;;;3.50;2.00;;;;;13.09;52.02;101416.13;4995531;28;46116;-57
2022/09/18 03:33:35;;;;;;;;;2.80;2.80;;;;;13.26;52.11;101441.34;4977972;28;45567;-60
2022/09/18 03:36:01;;;;;;;;;2.80;2.80;;;;;13.29;51.85;101446.41;4977964;28;45431;-59
2022/09/18 03:38:27;;;;;;;;;2.80;2.80;;;;;13.34;51.73;101450.47;4996096;28;45302;-59
2022/09/18 03:40:52;;;;;;;;;5.25;3.00;;;;;13.35;51.97;101446.63;4995341;28;46179;-58
2022/09/18 03:43:18;;;;;;;;;4.00;4.00;;;;;13.28;52.16;101433.69;4995370;28;45337;-58
2022/09/18 03:45:44;;;;;;;;;2.00;2.00;;;;;13.35;51.91;101446.63;4959762;28;46086;-58
2022/09/18 03:48:09;;;;;;;;;2.25;2.25;;;;;12.60;52.04;101333.66;5016821;28;45240;-58
2022/09/18 03:50:34;;;;;;;;;2.75;2.00;;;;;13.09;52.06;101407.88;5017212;28;45969;-58
2022/09/18 03:53:00;;;;;;;;;3.25;3.00;;;;;13.23;52.14;101439.00;5035281;28;45289;-59
2022/09/18 03:55:26;;;;;;;;;3.25;3.00;;;;;13.27;52.18;101434.78;5017356;28;45275;-58
2022/09/18 03:57:52;;;;;;;;;3.00;2.00;;;;;13.28;52.42;101439.22;5035291;28;45456;-58
2022/09/18 04:00:17;;;;;;;;;4.00;2.75;;;;;13.21;52.83;101435.63;5034823;28;46126;-58
2022/09/18 04:02:43;;;;;;;;;4.00;3.00;;;;;12.85;52.76;101404.66;5000216;28;45933;-59
2022/09/18 04:05:09;;;;;;;;;3.20;3.00;;;;;13.10;52.77;101444.53;5034895;28;45480;-58
2022/09/18 04:07:34;;;;;;;;;2.75;2.75;;;;;13.10;52.65;101442.63;5017177;28;45410;-58
2022/09/18 04:10:00;;;;;;;;;4.25;3.75;;;;;13.14;52.49;101446.63;5017098;28;45520;-58
2022/09/18 04:12:25;;;;;;;;;2.00;2.00;;;;;13.08;52.80;101439.22;5017160;28;45395;-57
2022/09/18 04:14:51;;;;;;;;;2.25;1.75;;;;;13.11;52.58;101449.81;5034965;28;45359;-57
2022/09/18 04:17:17;;;;;;;;;2.00;2.00;;;;;13.11;53.10;101446.22;5034966;28;45428;-57
2022/09/18 04:19:42;;;;;;;;;3.75;3.75;;;;;13.11;52.78;101447.06;5034181;28;45785;-57
2022/09/18 04:22:08;;;;;;;;;2.50;2.00;;;;;13.09;53.16;101446.44;5016875;28;45396;-60
2022/09/18 04:24:35;;;;;;;;;1.00;1.00;;;;;13.12;53.09;101448.75;5034306;28;45382;-60
2022/09/18 04:27:01;;;;;;;;;2.80;2.00;;;;;12.96;52.92;101416.13;5034793;28;45767;-60
2022/09/18 04:29:27;;;;;;;;;2.40;2.40;;;;;13.14;53.06;101446.63;5026048;28;46608;-59
2022/09/18 04:31:52;;;;;;;;;2.75;1.75;;;;;13.09;53.08;101446.44;5017791;28;45483;-59
2022/09/18 04:34:18;;;;;;;;;2.50;2.50;;;;;13.08;53.22;101444.72;5018393;28;45493;-58
2022/09/18 04:36:43;;;;;;;;;4.00;3.00;;;;;12.95;53.07;101450.22;5000291;28;45404;-57
2022/09/18 04:39:08;;;;;;;;;2.25;2.25;;;;;12.79;54.06;101440.47;5000252;28;48372;-56
2022/09/18 04:41:34;;;;;;;;;3.75;3.75;;;;;12.76;54.01;101432.63;4999775;28;45347;-56
2022/09/18 04:44:00;;;;;;;;;2.00;2.00;;;;;12.68;54.33;101414.38;5017838;28;45882;-56
2022/09/18 04:46:25;;;;;;;;;4.25;4.25;;;;;12.91;53.56;101446.22;5000109;28;45363;-58
2022/09/18 04:48:52;;;;;;;;;5.00;5.00;;;;;12.88;53.68;101431.78;5017832;28;45973;-59
2022/09/18 04:51:17;;;;;;;;;3.00;3.00;;;;;12.96;53.75;101450.03;4999943;28;45647;-59
2022/09/18 04:53:42;;;;;;;;;3.00;3.00;;;;;12.84;53.50;101426.91;5017482;28;45348;-58
2022/09/18 04:56:08;;;;;;;;;1.50;1.50;;;;;12.97;53.87;101450.88;5017793;28;45260;-58
2022/09/18 04:58:34;;;;;;;;;2.00;2.00;;;;;12.99;53.50;101455.13;5017628;28;46505;-59
2022/09/18 05:00:59;;;;;;;;;2.75;2.75;;;;;12.93;53.52;101453.22;5017326;28;45318;-60
2022/09/18 05:03:25;;;;;;;;;4.00;4.00;;;;;12.98;53.52;101452.56;5000094;28;45242;-59
2022/09/18 05:05:50;;;;;;;;;2.50;1.50;;;;;12.81;53.54;101430.94;4999511;28;45678;-58
2022/09/18 05:08:16;;;;;;;;;8.00;4.00;;;;;12.98;53.48;101460.84;4982893;28;48048;-58
2022/09/18 05:10:41;;;;;;;;;2.25;2.25;;;;;12.98;53.57;101456.16;4982867;28;45526;-60
2022/09/18 05:13:07;;;;;;;;;1.50;1.50;;;;;12.76;53.95;101450.00;5017602;28;45300;-58
2022/09/18 05:15:33;;;;;;;;;5.20;3.80;;;;;12.65;53.98;101436.84;4999819;28;45440;-56
2022/09/18 05:18:03;;;;;;;;;4.00;4.00;;;;;12.77;54.51;101457.22;5017031;28;45430;-55
2022/09/18 05:20:29;;;;;;;;;2.00;2.00;;;;;12.80;54.17;101461.47;4999099;28;45455;-56
2022/09/18 05:22:55;;;;;;;;;3.00;3.00;;;;;12.81;54.17;101458.47;4999558;28;45349;-56
2022/09/18 05:25:20;;;;;;;;;4.00;3.50;;;;;12.83;54.27;101461.91;4999399;28;45432;-59
2022/09/18 05:27:53;;;;;;;;;3.00;3.00;;;;;12.79;54.17;101455.09;4999432;28;46536;-59
2022/09/18 05:30:19;;;;;;;;;4.60;2.40;;;;;12.85;54.16;101458.91;4999941;28;45212;-56
2022/09/18 05:32:58;;;;;;;;;4.00;2.75;;;;;12.79;54.57;101451.47;4979498;28;45215;-56
2022/09/18 05:35:25;;;;;;;;;5.40;2.60;;;;;12.85;54.70;101457.00;4979744;28;45426;-57
2022/09/18 05:37:51;;;;;;;;;3.20;3.00;;;;;12.84;54.40;101460.81;4997274;28;45920;-58
2022/09/18 05:40:18;;;;;;;;;3.00;1.80;;;;;12.83;54.38;101456.38;4978204;28;45735;-62
2022/09/18 05:42:47;;;;;;;;;4.20;3.40;;;;;12.75;54.54;101456.56;4979594;28;45354;-59
2022/09/18 05:45:13;;;;;;;;;2.20;2.20;;;;;12.58;54.35;101420.31;4979972;28;45378;-58
2022/09/18 05:47:40;;;;;;;;;3.40;3.00;;;;;12.81;54.52;101468.66;4979448;28;46334;-58
2022/09/18 05:50:06;;;;;;;;;3.40;2.40;;;;;12.80;54.61;101462.28;4979452;28;45487;-57
2022/09/18 05:52:31;;;;;;;;;2.60;2.60;;;;;12.57;55.03;101426.88;4996671;28;45308;-59
2022/09/18 05:54:57;;;;;;;;;2.75;2.75;;;;;12.77;54.48;101454.47;4997338;28;45466;-57
2022/09/18 05:57:23;;;;;;;;;2.25;2.25;;;;;12.84;54.60;101462.72;4962749;28;46323;-57
2022/09/18 05:59:48;;;;;;;;;3.00;3.00;;;;;12.83;54.38;101467.41;4979537;28;45477;-57
2022/09/18 06:02:13;;;;;;;;;3.00;1.00;;;;;12.77;54.34;101459.97;4996692;28;45355;-57
2022/09/18 06:04:39;;;;;;;;;2.00;2.00;;;;;12.55;54.46;101416.06;4979585;28;45527;-59
2022/09/18 06:07:05;;;;;;;;;0.50;0.50;;;;;12.67;54.29;101443.00;4978761;28;46685;-60
2022/09/18 06:09:30;;;;;;;;;7.75;4.00;;;;;12.82;54.69;101465.69;4996731;28;45359;-60
2022/09/18 06:11:56;;;;;;;;;3.00;2.25;;;;;12.74;55.03;101461.22;4996807;28;45357;-59
2022/09/18 06:14:22;;;;;;;;;3.00;3.00;;;;;12.77;54.93;101468.22;4996885;28;45555;-59
2022/09/18 06:16:48;;;;;;;;;2.50;2.50;;;;;12.76;55.02;101461.03;4996541;28;46664;-58
2022/09/18 06:19:13;;;;;;;;;2.75;2.25;;;;;12.82;54.80;101475.88;4978712;28;45484;-60
2022/09/18 06:21:39;;;;;;;;;3.00;3.00;;;;;12.65;54.61;101445.13;4962391;28;45373;-57
2022/09/18 06:24:05;;;;;;;;;2.80;2.80;;;;;12.88;54.92;101486.88;4979226;28;45463;-56
2022/09/18 06:26:31;;;;;;;;;4.00;4.00;;;;;12.85;54.84;101481.81;4959110;28;45994;-58
2022/09/18 06:28:56;;;;;;;;;2.50;2.00;;;;;12.88;54.88;101483.28;4982225;28;45436;-56
2022/09/18 06:31:21;;;;;;;;;4.25;2.00;;;;;12.86;54.71;101482.66;4996470;28;45370;-56
2022/09/18 06:33:47;;;;;;;;;2.00;2.00;;;;;12.75;55.16;101464.81;4996711;28;45470;-56
2022/09/18 06:36:13;;;;;;;;;4.20;2.00;;;;;12.87;55.08;101487.94;5011441;28;48422;-57
2022/09/18 06:38:39;;;;;;;;;3.00;3.00;;;;;12.88;55.20;101488.81;4979081;28;45298;-58
2022/09/18 06:41:05;;;;;;;;;2.00;2.00;;;;;12.85;55.22;101483.69;4995211;28;45299;-58
2022/09/18 06:43:30;;;;;;;;;4.75;3.25;;;;;12.84;54.94;101474.59;4996587;28;45856;-59
2022/09/18 06:45:56;;;;;;;;;3.00;3.00;;;;;12.94;54.99;101496.25;4996112;28;45557;-57
2022/09/18 06:48:22;;;;;;;;;2.60;2.60;;;;;12.98;54.87;101491.16;4995106;28;45505;-57
2022/09/18 06:50:55;;;;;;;;;1.40;1.40;;;;;12.87;55.53;101484.34;4996029;28;45422;-57
2022/09/18 06:53:21;;;;;;;;;2.20;1.40;;;;;12.91;55.42;101482.03;4994933;28;45599;-58
2022/09/18 06:55:47;;;;;;;;;3.00;3.00;;;;;12.86;55.50;101483.50;4994759;28;45373;-59
2022/09/18 06:58:16;;;;;;;;;3.40;2.60;;;;;12.81;55.49;101463.97;4995987;28;45497;-58
2022/09/18 07:00:43;;;;;;;;;3.20;3.20;;;;;12.92;55.30;101479.03;4996164;28;45395;-58
2022/09/18 07:03:08;;;;;;;;;4.00;4.00;;;;;12.90;55.40;101480.34;4996389;28;45273;-58
2022/09/18 07:05:36;;;;;;;;;2.00;2.00;;;;;12.34;55.68;101387.63;4995964;28;45935;-57
2022/09/18 07:08:02;;;;;;;;;3.80;2.80;;;;;12.97;55.54;101478.44;4978021;28;45368;-58
2022/09/18 07:10:27;;;;;;;;;3.50;3.50;;;;;13.01;55.33;101479.69;4996121;28;45419;-57
2022/09/18 07:12:56;;;;;;;;;4.50;2.75;;;;;13.02;55.81;101485.00;4996013;28;45349;-58
2022/09/18 07:15:22;;;;;;;;;3.00;3.00;;;;;13.06;55.43;101488.19;4995778;28;45395;-57
2022/09/18 07:17:47;;;;;;;;;4.00;3.50;;;;;13.13;55.06;101488.22;4995738;28;45303;-56
2022/09/18 07:20:13;;;;;;;;;5.50;4.00;;;;;12.97;55.60;101483.94;4995974;28;45330;-56
2022/09/18 07:22:39;;;;;;;;;3.75;2.00;;;;;12.83;55.70;101467.41;4994426;28;45340;-55
2022/09/18 07:25:05;;;;;;;;;5.00;4.50;;;;;12.81;55.78;101449.38;5000506;28;46566;-58
2022/09/18 07:27:31;;;;;;;;;3.80;3.00;;;;;13.08;55.73;101496.25;4997577;28;45371;-56
2022/09/18 07:29:57;;;;;;;;;3.00;3.00;;;;;13.04;56.33;101490.31;5002396;28;45516;-54
2022/09/18 07:32:23;;;;;;;;;4.00;3.00;;;;;12.71;56.48;101458.06;4978247;28;45588;-57
2022/09/18 07:34:50;;;;;;;;;3.20;3.20;;;;;12.85;56.90;101473.53;4961731;28;46883;-58
2022/09/18 07:37:16;;;;;;;;;5.50;3.25;;;;;12.64;56.84;101418.63;4995184;28;45446;-56
2022/09/18 07:39:42;;;;;;;;;5.00;4.00;;;;;13.17;56.20;101488.63;4995379;28;45429;-59
2022/09/18 07:42:09;;;;;;;;;5.80;3.00;;;;;13.11;55.96;101463.59;4995471;28;45586;-59
2022/09/18 07:44:34;;;;;;;;;3.80;3.80;;;;;13.27;55.95;101489.03;4977347;28;45626;-60
2022/09/18 07:47:00;;;;;;;;;4.75;4.00;;;;;13.24;56.66;101486.72;4995203;28;45284;-60
2022/09/18 07:49:25;;;;;;;;;4.00;2.75;;;;;13.18;56.72;101496.66;4995260;28;45270;-59
2022/09/18 07:51:51;;;;;;;;;4.75;3.50;;;;;13.10;56.95;101480.34;4995239;28;45418;-58
2022/09/18 07:54:17;;;;;;;;;3.00;3.00;;;;;13.24;56.70;101483.97;4977178;28;45457;-57
2022/09/18 07:56:42;;;;;;;;;5.75;4.50;;;;;13.20;56.77;101489.06;4994816;28;45454;-57
2022/09/18 07:59:09;;;;;;;;;2.50;2.50;;;;;13.16;57.02;101493.28;4995364;28;45492;-59
2022/09/18 08:01:34;;;;;;;;;3.00;3.00;;;;;13.27;56.47;101495.41;4995286;28;45447;-58
2022/09/18 08:04:00;;;;;;;;;5.00;2.00;;;;;13.39;56.28;101497.53;4994073;28;45396;-57
2022/09/18 08:06:26;;;;;;;;;4.00;3.20;;;;;13.40;55.86;101486.28;4995001;28;45423;-60
2022/09/18 08:08:51;;;;;;;;;4.00;3.25;;;;;13.52;55.98;101505.84;4994918;28;45439;-59
2022/09/18 08:11:17;;;;;;;;;6.00;4.75;;;;;13.55;56.30;101488.84;4995303;28;45462;-58
2022/09/18 08:13:42;;;;;;;;;5.25;3.25;;;;;13.59;55.96;101494.78;4995018;28;46179;-58
2022/09/18 08:16:08;;;;;;;;;4.00;4.00;;;;;13.60;55.71;101490.97;4977540;28;45713;-60
2022/09/18 08:18:37;;;;;;;;;5.60;5.60;;;;;13.47;56.08;101464.25;4994934;28;45336;-60
2022/09/18 08:21:03;;;;;;;;;3.80;3.80;;;;;13.76;55.94;101497.94;4977661;28;45446;-59
2022/09/18 08:23:28;;;;;;;;;4.00;4.00;;;;;13.82;55.48;101496.22;4982203;28;46473;-59
2022/09/18 08:25:54;;;;;;;;;4.25;2.50;;;;;13.89;55.22;101496.22;4991267;28;45423;-60
2022/09/18 08:28:19;;;;;;;;;7.25;4.75;;;;;13.74;55.10;101468.88;5010478;28;45990;-61
2022/09/18 08:30:44;;;;;;;;;4.00;4.00;;;;;13.95;55.36;101487.09;5011562;28;45499;-60
2022/09/18 08:33:10;;;;;;;;;5.50;5.00;;;;;14.07;55.10;101501.06;5002986;28;46081;-61
2022/09/18 08:35:36;;;;;;;;;4.00;4.00;;;;;14.13;55.05;101502.94;4992131;28;45482;-62
2022/09/18 08:38:01;;;;;;;;;3.00;3.00;;;;;13.92;54.76;101449.72;5009903;28;45543;-61
2022/09/18 08:40:39;;;;;;;;;4.75;3.25;;;;;14.22;55.04;101498.03;4976021;28;45473;-61
2022/09/18 08:43:40;;;;;;;;;4.00;4.00;;;;;14.26;54.97;101506.72;4989812;28;45440;-60
2022/09/18 08:46:08;;;;;;;;;3.40;3.00;;;;;14.21;54.08;101488.91;4984513;28;45516;-61
2022/09/18 08:48:48;;;;;;;;;10.60;7.40;;;;;14.33;54.15;101491.84;4992141;28;45780;-61
2022/09/18 08:51:16;;;;;;;;;6.20;4.00;;;;;14.46;54.68;101501.97;5010110;28;45437;-59
2022/09/18 08:53:43;;;;;;;;;5.00;2.60;;;;;14.44;54.38;101486.69;5009796;28;46525;-60
2022/09/18 08:56:14;;;;;;;;;4.60;3.40;;;;;14.53;54.06;101496.44;4978077;28;45841;-59
2022/09/18 08:58:47;;;;;;;;;5.00;2.40;;;;;14.61;53.68;101504.47;4995500;28;45461;-60
2022/09/18 09:01:17;;;;;;;;;8.00;6.00;;;;;14.64;53.57;101487.44;5012408;28;45485;-60
2022/09/18 09:04:03;;;;;;;;;3.00;3.00;;;;;14.71;52.84;101495.69;5011648;28;46066;-61
2022/09/18 09:06:54;;;;;;;;;1.40;1.40;;;;;14.61;53.24;101467.69;4996656;28;45524;-59
2022/09/18 09:09:44;;;;;;;;;3.00;2.20;;;;;14.90;53.32;101504.13;5012381;28;45535;-59
2022/09/18 09:12:16;;;;;;;;;2.40;1.40;;;;;14.83;53.06;101457.16;5013016;28;45468;-62
2022/09/18 09:14:57;;;;;;;;;2.60;2.00;;;;;14.80;52.73;101448.47;5012140;28;45484;-61
2022/09/18 09:17:48;;;;;;;;;3.00;2.20;;;;;15.20;52.04;101495.16;4987767;28;45541;-60
2022/09/18 09:20:24;;;;;;;;;3.00;3.00;;;;;15.25;52.12;101489.81;4978219;28;45461;-61
2022/09/18 09:23:06;;;;;;;;;2.00;2.00;;;;;15.12;52.13;101452.09;5030310;28;45757;-61
2022/09/18 09:25:40;;;;;;;;;4.40;3.00;;;;;15.41;52.08;101484.78;5011003;28;46164;-60
2022/09/18 09:28:16;;;;;;;;;2.80;2.80;;;;;15.48;52.10;101480.03;5011686;28;45703;-61
2022/09/18 09:30:43;;;;;;;;;3.40;2.80;;;;;15.57;51.98;101477.84;4994948;28;45539;-61
2022/09/18 09:33:26;;;;;;;;;3.60;2.40;;;;;15.68;51.52;101477.09;4996930;28;45984;-60
2022/09/18 09:36:04;;;;;;;;;3.40;2.80;;;;;15.78;51.13;101478.47;4966658;28;45936;-61
2022/09/18 09:38:52;;;;;;;;;2.60;2.60;;;;;15.86;50.50;101475.44;4992128;28;45744;-61
2022/09/18 09:41:41;;;;;;;;;1.00;1.00;;;;;15.93;49.58;101470.69;5011345;28;46016;-63
2022/09/18 09:44:30;;;;;;;;;1.60;1.60;;;;;16.10;49.00;101470.06;5011770;28;45434;-64
2022/09/18 09:47:21;;;;;;;;;1.80;1.00;;;;;16.20;48.09;101475.91;5012412;28;45475;-62
2022/09/18 09:50:15;;;;;;;;;2.00;1.00;;;;;16.30;47.31;101483.69;5001577;28;45405;-64
2022/09/18 09:52:41;;;;;;;;;3.40;3.40;;;;;16.33;47.07;101462.97;5012296;28;45535;-62
2022/09/18 09:55:13;;;;;;;;;2.60;2.60;;;;;16.47;46.43;101474.72;4994854;28;45481;-63
2022/09/18 09:57:38;;;;;;;;;1.20;1.20;;;;;16.34;45.77;101440.56;5010583;28;45791;-63
2022/09/18 10:00:11;;;;;;;;;2.00;2.00;;;;;16.60;45.11;101470.94;5012305;28;45417;-63
2022/09/18 10:02:54;;;;;;;;;2.20;2.20;;;;;16.65;45.50;101460.81;4995441;28;45701;-61
2022/09/18 10:05:26;;;;;;;;;1.20;1.20;;;;;16.77;45.39;101469.16;5012869;28;45513;-62
2022/09/18 10:07:56;;;;;;;;;1.00;1.00;;;;;16.83;45.19;101466.53;4999006;28;45524;-62
2022/09/18 10:10:41;;;;;;;;;4.60;2.00;;;;;16.83;45.28;101472.94;5007990;28;45414;-62
2022/09/18 10:13:18;;;;;;;;;1.00;1.00;;;;;16.88;45.31;101459.22;5010855;28;45519;-62
2022/09/18 10:15:45;;;;;;;;;3.60;2.00;;;;;16.91;45.12;101458.72;5011201;28;45719;-60
2022/09/18 10:18:30;;;;;;;;;2.00;1.00;;;;;16.96;44.95;101446.09;4988170;28;46613;-61
2022/09/18 10:21:14;;;;;;;;;1.00;1.00;;;;;17.10;45.10;101463.38;4971316;28;45480;-59
2022/09/18 10:23:40;;;;;;;;;1.00;1.00;;;;;17.12;44.20;101459.28;4990147;28;45526;-59
2022/09/18 10:26:06;;;;;;;;;1.60;1.60;;;;;17.19;44.32;101453.63;5004346;28;45979;-60
2022/09/18 10:28:32;;;;;;;;;1.00;1.00;;;;;17.30;43.51;101457.50;4976352;28;46235;-61
2022/09/18 10:30:58;;;;;;;;;2.75;2.50;;;;;17.38;43.41;101448.81;5011424;28;45451;-59
2022/09/18 10:33:40;;;;;;;;;2.20;2.20;;;;;17.33;43.60;101424.56;4997417;28;45992;-59
2022/09/18 10:36:32;;;;;;;;;2.20;2.20;;;;;17.63;43.24;101441.31;5014246;28;45757;-59
2022/09/18 10:39:01;;;;;;;;;4.40;2.20;;;;;17.73;42.90;101447.13;5013732;28;46401;-59
2022/09/18 10:41:37;;;;;;;;;2.60;2.60;;;;;17.78;43.05;101443.59;5013518;28;45560;-60
2022/09/18 10:44:19;;;;;;;;;4.00;2.80;;;;;17.84;42.70;101442.63;5015157;28;45599;-62
2022/09/18 10:47:11;;;;;;;;;2.00;2.00;;;;;17.92;43.00;101436.69;5030331;28;45490;-62
2022/09/18 10:49:48;;;;;;;;;2.40;2.40;;;;;18.08;42.53;101445.41;5031218;28;46463;-59
2022/09/18 10:52:22;;;;;;;;;1.00;1.00;;;;;17.92;42.18;101399.78;4959134;28;45476;-59
2022/09/18 10:54:59;;;;;;;;;2.40;2.00;;;;;18.18;42.37;101437.28;4991783;28;45509;-62
2022/09/18 10:57:30;;;;;;;;;4.00;3.00;;;;;18.26;42.40;101425.75;4995861;28;45836;-62
2022/09/18 10:59:56;;;;;;;;;1.00;1.00;;;;;18.44;42.05;101429.44;5012105;28;46284;-62
2022/09/18 11:02:23;;;;;;;;;1.25;1.25;;;;;18.61;41.96;101439.78;5011253;28;45664;-60
2022/09/18 11:04:48;;;;;;;;;2.00;2.00;;;;;18.46;41.37;101393.91;4993623;28;45603;-60
2022/09/18 11:07:14;;;;;;;;;3.00;3.00;;;;;18.78;41.28;101439.81;4993851;28;45498;-60
2022/09/18 11:09:40;;;;;;;;;2.00;2.00;;;;;18.89;40.73;101440.81;4994676;28;47565;-63
2022/09/18 11:12:19;;;;;;;;;1.25;1.00;;;;;18.83;40.23;101420.41;5031188;28;45433;-62
2022/09/18 11:14:49;;;;;;;;;3.00;1.20;;;;;18.96;40.28;101424.81;4997364;28;45348;-61
2022/09/18 11:17:28;;;;;;;;;1.00;1.00;;;;;18.82;40.41;101436.28;5006403;28;45527;-63
2022/09/18 11:19:54;;;;;;;;;1.80;1.80;;;;;18.95;40.28;101423.13;4976767;28;47393;-61
2022/09/18 11:22:41;;;;;;;;;1.20;1.20;;;;;18.93;40.22;101391.94;4998681;28;45822;-60
2022/09/18 11:25:23;;;;;;;;;2.20;2.20;;;;;19.05;40.35;101397.47;5009805;28;45400;-60
2022/09/18 11:27:50;;;;;;;;;4.20;3.20;;;;;19.24;39.82;101417.50;4971619;28;45467;-59
2022/09/18 11:30:22;;;;;;;;;2.40;2.40;;;;;19.30;39.74;101412.84;4998198;28;46009;-60
2022/09/18 11:32:50;;;;;;;;;1.40;1.40;;;;;19.31;39.95;101395.91;4989962;28;45351;-56
2022/09/18 11:35:17;;;;;;;;;4.60;3.20;;;;;19.17;39.88;101344.50;5001380;28;45578;-62
2022/09/18 11:37:51;;;;;;;;;5.20;4.20;;;;;19.66;38.95;101416.16;4997081;28;45578;-60